sensor_id;sensor_type;location;lat;lon;timestamp;pressure;altitude;pressure_sealevel;temperature;humidity
31044;BME280;17710;52.520;13.352;2023-01-29T00:00:16;102363.25;;;5.48;48.02
31044;BME280;17710;52.520;13.352;2023-01-29T00:02:42;102361.31;;;5.32;47.67
31044;BME280;17710;52.520;13.352;2023-01-29T00:05:09;102360.53;;;5.38;47.57
31044;BME280;17710;52.520;13.352;2023-01-29T00:07:35;102357.13;;;5.48;48.00
31044;BME280;17710;52.520;13.352;2023-01-29T00:10:03;102361.66;;;5.63;48.21
31044;BME280;17710;52.520;13.352;2023-01-29T00:12:30;102354.72;;;5.68;47.70
31044;BME280;17710;52.520;13.352;2023-01-29T00:14:56;102361.59;;;5.56;47.36
31044;BME280;17710;52.520;13.352;2023-01-29T00:17:23;102361.38;;;5.37;47.67
31044;BME280;17710;52.520;13.352;2023-01-29T00:19:49;102363.69;;;5.12;48.91
31044;BME280;17710;52.520;13.352;2023-01-29T00:22:15;102352.56;;;5.30;48.92
31044;BME280;17710;52.520;13.352;2023-01-29T00:24:42;102356.66;;;5.08;48.76
31044;BME280;17710;52.520;13.352;2023-01-29T00:27:10;102356.50;;;4.96;49.70
31044;BME280;17710;52.520;13.352;2023-01-29T00:29:36;102348.66;;;4.99;49.21
31044;BME280;17710;52.520;13.352;2023-01-29T00:32:03;102344.56;;;5.19;49.29
31044;BME280;17710;52.520;13.352;2023-01-29T00:34:29;102340.31;;;5.29;48.64
31044;BME280;17710;52.520;13.352;2023-01-29T00:36:56;102346.25;;;5.14;48.75
31044;BME280;17710;52.520;13.352;2023-01-29T00:39:29;102342.06;;;5.32;49.17
31044;BME280;17710;52.520;13.352;2023-01-29T00:42:02;102341.06;;;5.17;48.58
31044;BME280;17710;52.520;13.352;2023-01-29T00:45:03;102335.94;;;5.28;48.46
31044;BME280;17710;52.520;13.352;2023-01-29T00:47:29;102324.88;;;5.56;48.86
31044;BME280;17710;52.520;13.352;2023-01-29T00:49:57;102323.81;;;5.38;49.06
31044;BME280;17710;52.520;13.352;2023-01-29T00:52:24;102317.84;;;5.54;48.46
31044;BME280;17710;52.520;13.352;2023-01-29T00:54:51;102331.16;;;5.72;48.43
31044;BME280;17710;52.520;13.352;2023-01-29T00:57:20;102326.81;;;5.76;48.25
31044;BME280;17710;52.520;13.352;2023-01-29T00:59:47;102333.03;;;5.87;47.75
31044;BME280;17710;52.520;13.352;2023-01-29T01:02:15;102341.34;;;5.42;48.95
31044;BME280;17710;52.520;13.352;2023-01-29T01:05:00;102330.78;;;5.36;49.48
31044;BME280;17710;52.520;13.352;2023-01-29T01:07:27;102331.66;;;5.35;49.50
31044;BME280;17710;52.520;13.352;2023-01-29T01:09:54;102332.28;;;5.15;50.16
31044;BME280;17710;52.520;13.352;2023-01-29T01:12:38;102333.25;;;5.25;49.89
31044;BME280;17710;52.520;13.352;2023-01-29T01:15:05;102323.66;;;5.26;49.72
31044;BME280;17710;52.520;13.352;2023-01-29T01:17:32;102331.50;;;5.22;50.11
31044;BME280;17710;52.520;13.352;2023-01-29T01:19:59;102335.16;;;5.37;50.26
31044;BME280;17710;52.520;13.352;2023-01-29T01:22:26;102320.59;;;4.88;51.11
31044;BME280;17710;52.520;13.352;2023-01-29T01:24:52;102325.00;;;4.90;51.50
31044;BME280;17710;52.520;13.352;2023-01-29T01:27:19;102335.69;;;5.05;51.36
31044;BME280;17710;52.520;13.352;2023-01-29T01:29:45;102335.69;;;5.05;50.94
31044;BME280;17710;52.520;13.352;2023-01-29T01:32:12;102326.94;;;5.06;51.48
31044;BME280;17710;52.520;13.352;2023-01-29T01:34:40;102325.44;;;5.28;50.61
31044;BME280;17710;52.520;13.352;2023-01-29T01:37:06;102323.72;;;5.29;50.11
31044;BME280;17710;52.520;13.352;2023-01-29T01:39:33;102324.78;;;5.47;50.24
31044;BME280;17710;52.520;13.352;2023-01-29T01:41:59;102327.13;;;5.21;51.17
31044;BME280;17710;52.520;13.352;2023-01-29T01:44:50;102338.66;;;5.36;50.82
31044;BME280;17710;52.520;13.352;2023-01-29T01:47:19;102336.81;;;5.29;50.65
31044;BME280;17710;52.520;13.352;2023-01-29T01:49:49;102339.56;;;5.38;50.61
31044;BME280;17710;52.520;13.352;2023-01-29T01:52:16;102334.44;;;5.51;50.20
31044;BME280;17710;52.520;13.352;2023-01-29T01:54:44;102332.53;;;5.38;50.54
31044;BME280;17710;52.520;13.352;2023-01-29T01:57:14;102328.25;;;5.46;50.46
31044;BME280;17710;52.520;13.352;2023-01-29T01:59:53;102327.28;;;5.38;50.86
31044;BME280;17710;52.520;13.352;2023-01-29T02:02:21;102317.09;;;5.64;50.01
31044;BME280;17710;52.520;13.352;2023-01-29T02:05:07;102315.91;;;5.35;50.39
31044;BME280;17710;52.520;13.352;2023-01-29T02:07:53;102307.91;;;5.22;51.26
31044;BME280;17710;52.520;13.352;2023-01-29T02:10:42;102303.69;;;5.35;50.94
31044;BME280;17710;52.520;13.352;2023-01-29T02:13:09;102302.75;;;5.32;51.30
31044;BME280;17710;52.520;13.352;2023-01-29T02:15:37;102303.75;;;5.41;50.42
31044;BME280;17710;52.520;13.352;2023-01-29T02:18:06;102315.06;;;5.36;50.99
31044;BME280;17710;52.520;13.352;2023-01-29T02:20:35;102308.28;;;5.56;50.52
31044;BME280;17710;52.520;13.352;2023-01-29T02:26:14;102296.03;;;5.58;50.46
31044;BME280;17710;52.520;13.352;2023-01-29T02:28:49;102289.09;;;5.61;50.55
31044;BME280;17710;52.520;13.352;2023-01-29T02:31:25;102292.72;;;5.79;49.94
31044;BME280;17710;52.520;13.352;2023-01-29T02:34:01;102298.84;;;5.78;50.35
31044;BME280;17710;52.520;13.352;2023-01-29T02:36:36;102296.72;;;5.36;50.75
31044;BME280;17710;52.520;13.352;2023-01-29T02:39:13;102299.38;;;5.42;50.94
31044;BME280;17710;52.520;13.352;2023-01-29T02:41:43;102292.50;;;5.53;50.59
31044;BME280;17710;52.520;13.352;2023-01-29T02:44:19;102298.84;;;5.78;50.40
31044;BME280;17710;52.520;13.352;2023-01-29T02:46:51;102298.81;;;5.73;50.37
31044;BME280;17710;52.520;13.352;2023-01-29T02:49:23;102299.72;;;5.75;50.47
31044;BME280;17710;52.520;13.352;2023-01-29T02:51:58;102287.38;;;5.65;50.76
31044;BME280;17710;52.520;13.352;2023-01-29T02:54:31;102288.34;;;5.76;50.85
31044;BME280;17710;52.520;13.352;2023-01-29T02:57:05;102284.78;;;5.68;50.77
31044;BME280;17710;52.520;13.352;2023-01-29T02:59:44;102281.31;;;5.72;50.72
31044;BME280;17710;52.520;13.352;2023-01-29T03:02:14;102286.56;;;5.74;51.03
31044;BME280;17710;52.520;13.352;2023-01-29T03:04:46;102290.03;;;5.71;51.22
31044;BME280;17710;52.520;13.352;2023-01-29T03:07:18;102275.41;;;5.94;50.88
31044;BME280;17710;52.520;13.352;2023-01-29T03:10:08;102283.38;;;6.04;50.33
31044;BME280;17710;52.520;13.352;2023-01-29T03:12:37;102283.97;;;5.75;51.32
31044;BME280;17710;52.520;13.352;2023-01-29T03:15:08;102276.06;;;5.71;51.09
31044;BME280;17710;52.520;13.352;2023-01-29T03:17:44;102269.69;;;5.43;52.30
31044;BME280;17710;52.520;13.352;2023-01-29T03:20:15;102272.47;;;5.61;51.77
31044;BME280;17710;52.520;13.352;2023-01-29T03:22:58;102275.00;;;5.49;51.93
31044;BME280;17710;52.520;13.352;2023-01-29T03:25:27;102275.91;;;5.54;52.07
31044;BME280;17710;52.520;13.352;2023-01-29T03:28:15;102274.06;;;5.45;52.05
31044;BME280;17710;52.520;13.352;2023-01-29T03:31:04;102268.75;;;5.36;52.81
31044;BME280;17710;52.520;13.352;2023-01-29T03:33:51;102261.88;;;5.49;52.72
31044;BME280;17710;52.520;13.352;2023-01-29T03:36:25;102253.72;;;5.17;52.77
31044;BME280;17710;52.520;13.352;2023-01-29T03:39:03;102249.22;;;5.05;53.34
31044;BME280;17710;52.520;13.352;2023-01-29T03:41:32;102250.19;;;5.16;53.35
31044;BME280;17710;52.520;13.352;2023-01-29T03:44:09;102242.53;;;5.35;52.89
31044;BME280;17710;52.520;13.352;2023-01-29T03:46:44;102243.50;;;5.47;52.45
31044;BME280;17710;52.520;13.352;2023-01-29T03:49:19;102234.75;;;5.45;52.42
31044;BME280;17710;52.520;13.352;2023-01-29T03:51:54;102223.41;;;5.48;52.23
31044;BME280;17710;52.520;13.352;2023-01-29T03:54:27;102225.84;;;5.27;53.41
31044;BME280;17710;52.520;13.352;2023-01-29T03:57:01;102218.78;;;5.18;53.72
31044;BME280;17710;52.520;13.352;2023-01-29T03:59:34;102213.66;;;5.30;53.78
31044;BME280;17710;52.520;13.352;2023-01-29T04:02:09;102204.03;;;5.29;53.68
31044;BME280;17710;52.520;13.352;2023-01-29T04:04:42;102192.59;;;5.22;54.17
31044;BME280;17710;52.520;13.352;2023-01-29T04:07:12;102190.78;;;5.15;54.61
31044;BME280;17710;52.520;13.352;2023-01-29T04:09:44;102192.63;;;5.26;54.45
31044;BME280;17710;52.520;13.352;2023-01-29T04:12:27;102180.53;;;5.41;53.97
31044;BME280;17710;52.520;13.352;2023-01-29T04:14:57;102176.09;;;5.33;53.91
31044;BME280;17710;52.520;13.352;2023-01-29T04:17:32;102172.75;;;5.50;54.11
31044;BME280;17710;52.520;13.352;2023-01-29T04:20:00;102171.91;;;5.54;53.96
31044;BME280;17710;52.520;13.352;2023-01-29T04:22:30;102170.13;;;5.50;54.82
31044;BME280;17710;52.520;13.352;2023-01-29T04:24:58;102170.03;;;5.40;55.63
31044;BME280;17710;52.520;13.352;2023-01-29T04:27:34;102174.59;;;5.62;55.65
31044;BME280;17710;52.520;13.352;2023-01-29T04:30:19;102175.50;;;5.67;55.73
31044;BME280;17710;52.520;13.352;2023-01-29T04:32:56;102159.63;;;5.47;56.71
31044;BME280;17710;52.520;13.352;2023-01-29T04:35:31;102162.22;;;5.47;56.28
31044;BME280;17710;52.520;13.352;2023-01-29T04:38:09;102148.34;;;5.59;56.62
31044;BME280;17710;52.520;13.352;2023-01-29T04:40:44;102155.34;;;5.57;56.38
31044;BME280;17710;52.520;13.352;2023-01-29T04:43:17;102152.69;;;5.55;56.60
31044;BME280;17710;52.520;13.352;2023-01-29T04:45:56;102164.16;;;5.73;55.98
31044;BME280;17710;52.520;13.352;2023-01-29T04:48:30;102158.91;;;5.71;56.08
31044;BME280;17710;52.520;13.352;2023-01-29T04:51:04;102152.81;;;5.74;56.27
31044;BME280;17710;52.520;13.352;2023-01-29T04:53:45;102158.91;;;5.71;56.59
31044;BME280;17710;52.520;13.352;2023-01-29T04:56:20;102161.53;;;5.68;56.79
31044;BME280;17710;52.520;13.352;2023-01-29T04:58:51;102160.47;;;5.46;57.75
31044;BME280;17710;52.520;13.352;2023-01-29T05:01:22;102164.91;;;5.53;57.96
31044;BME280;17710;52.520;13.352;2023-01-29T05:03:55;102166.78;;;5.71;57.51
31044;BME280;17710;52.520;13.352;2023-01-29T05:06:23;102149.25;;;5.64;57.56
31044;BME280;17710;52.520;13.352;2023-01-29T05:08:51;102168.44;;;5.57;57.67
31044;BME280;17710;52.520;13.352;2023-01-29T05:11:18;102166.53;;;5.38;58.22
31044;BME280;17710;52.520;13.352;2023-01-29T05:13:46;102169.22;;;5.44;58.26
31044;BME280;17710;52.520;13.352;2023-01-29T05:16:15;102167.56;;;5.56;58.81
31044;BME280;17710;52.520;13.352;2023-01-29T05:18:44;102164.94;;;5.58;58.26
31044;BME280;17710;52.520;13.352;2023-01-29T05:21:13;102164.16;;;5.70;58.15
31044;BME280;17710;52.520;13.352;2023-01-29T05:23:39;102168.56;;;5.78;58.08
31044;BME280;17710;52.520;13.352;2023-01-29T05:26:23;102170.38;;;5.84;58.29
31044;BME280;17710;52.520;13.352;2023-01-29T05:29:07;102165.97;;;5.80;58.18
31044;BME280;17710;52.520;13.352;2023-01-29T05:31:33;102170.28;;;5.69;58.30
31044;BME280;17710;52.520;13.352;2023-01-29T05:34:00;102170.38;;;5.82;57.85
31044;BME280;17710;52.520;13.352;2023-01-29T05:36:28;102167.00;;;6.00;57.67
31044;BME280;17710;52.520;13.352;2023-01-29T05:38:54;102172.06;;;5.74;58.13
31044;BME280;17710;52.520;13.352;2023-01-29T05:41:21;102172.94;;;5.78;57.77
31044;BME280;17710;52.520;13.352;2023-01-29T05:43:50;102170.03;;;5.37;59.41
31044;BME280;17710;52.520;13.352;2023-01-29T05:46:16;102173.78;;;5.72;58.08
31044;BME280;17710;52.520;13.352;2023-01-29T05:48:43;102176.06;;;5.30;59.58
31044;BME280;17710;52.520;13.352;2023-01-29T05:51:09;102177.19;;;5.59;58.19
31044;BME280;17710;52.520;13.352;2023-01-29T05:53:37;102179.69;;;5.45;58.80
31044;BME280;17710;52.520;13.352;2023-01-29T05:56:04;102183.25;;;5.53;59.11
31044;BME280;17710;52.520;13.352;2023-01-29T05:58:31;102189.41;;;5.57;58.55
31044;BME280;17710;52.520;13.352;2023-01-29T06:01:07;102185.19;;;5.77;58.13
31044;BME280;17710;52.520;13.352;2023-01-29T06:03:33;102189.50;;;5.69;58.49
31044;BME280;17710;52.520;13.352;2023-01-29T06:06:00;102192.31;;;5.89;57.82
31044;BME280;17710;52.520;13.352;2023-01-29T06:08:27;102185.22;;;5.82;57.91
31044;BME280;17710;52.520;13.352;2023-01-29T06:10:54;102185.19;;;5.77;57.83
31044;BME280;17710;52.520;13.352;2023-01-29T06:13:21;102193.97;;;5.82;58.02
31044;BME280;17710;52.520;13.352;2023-01-29T06:15:47;102191.31;;;5.76;58.31
31044;BME280;17710;52.520;13.352;2023-01-29T06:18:13;102193.88;;;5.69;58.07
31044;BME280;17710;52.520;13.352;2023-01-29T06:20:40;102210.41;;;5.57;59.13
31044;BME280;17710;52.520;13.352;2023-01-29T06:23:06;102207.88;;;5.74;58.26
31044;BME280;17710;52.520;13.352;2023-01-29T06:25:33;102193.97;;;5.85;57.89
31044;BME280;17710;52.520;13.352;2023-01-29T06:28:01;102189.56;;;5.75;58.28
31044;BME280;17710;52.520;13.352;2023-01-29T06:30:27;102189.53;;;5.74;58.35
31044;BME280;17710;52.520;13.352;2023-01-29T06:32:54;102188.63;;;5.69;58.86
31044;BME280;17710;52.520;13.352;2023-01-29T06:35:21;102189.47;;;5.63;59.02
31044;BME280;17710;52.520;13.352;2023-01-29T06:37:47;102186.72;;;5.48;59.16
31044;BME280;17710;52.520;13.352;2023-01-29T06:40:14;102188.63;;;5.69;59.07
31044;BME280;17710;52.520;13.352;2023-01-29T06:42:40;102183.38;;;5.67;59.11
31044;BME280;17710;52.520;13.352;2023-01-29T06:45:09;102185.94;;;5.61;59.32
31044;BME280;17710;52.520;13.352;2023-01-29T06:47:36;102194.72;;;5.63;59.05
31044;BME280;17710;52.520;13.352;2023-01-29T06:50:02;102197.22;;;5.52;59.37
31044;BME280;17710;52.520;13.352;2023-01-29T06:52:29;102200.03;;;5.71;58.78
31044;BME280;17710;52.520;13.352;2023-01-29T06:54:55;102204.44;;;5.79;58.84
31044;BME280;17710;52.520;13.352;2023-01-29T06:57:22;102200.72;;;5.53;60.08
31044;BME280;17710;52.520;13.352;2023-01-29T06:59:48;102194.56;;;5.48;60.08
31044;BME280;17710;52.520;13.352;2023-01-29T07:02:16;102201.38;;;5.25;60.83
31044;BME280;17710;52.520;13.352;2023-01-29T07:04:43;102186.47;;;5.20;60.93
31044;BME280;17710;52.520;13.352;2023-01-29T07:07:09;102187.44;;;5.30;60.85
31044;BME280;17710;52.520;13.352;2023-01-29T07:09:37;102191.00;;;5.40;60.75
31044;BME280;17710;52.520;13.352;2023-01-29T07:12:05;102192.91;;;5.56;60.65
31044;BME280;17710;52.520;13.352;2023-01-29T07:14:32;102183.06;;;5.32;61.21
31044;BME280;17710;52.520;13.352;2023-01-29T07:16:58;102175.13;;;5.18;61.63
31044;BME280;17710;52.520;13.352;2023-01-29T07:19:26;102186.50;;;5.24;61.91
31044;BME280;17710;52.520;13.352;2023-01-29T07:21:53;102179.69;;;5.45;61.47
31044;BME280;17710;52.520;13.352;2023-01-29T07:24:22;102185.19;;;5.77;60.35
31044;BME280;17710;52.520;13.352;2023-01-29T07:26:51;102180.94;;;5.91;59.96
31044;BME280;17710;52.520;13.352;2023-01-29T07:29:17;102192.31;;;5.89;59.47
31044;BME280;17710;52.520;13.352;2023-01-29T07:31:44;102196.59;;;5.85;60.28
31044;BME280;17710;52.520;13.352;2023-01-29T07:34:10;102196.47;;;5.67;60.53
31044;BME280;17710;52.520;13.352;2023-01-29T07:36:38;102197.41;;;5.78;60.22
31044;BME280;17710;52.520;13.352;2023-01-29T07:39:04;102198.34;;;5.82;60.29
31044;BME280;17710;52.520;13.352;2023-01-29T07:41:31;102192.34;;;5.96;59.90
31044;BME280;17710;52.520;13.352;2023-01-29T07:43:57;102174.88;;;6.00;59.91
31044;BME280;17710;52.520;13.352;2023-01-29T07:46:23;102173.19;;;6.10;59.63
31044;BME280;17710;52.520;13.352;2023-01-29T07:48:50;102160.81;;;5.92;59.93
31044;BME280;17710;52.520;13.352;2023-01-29T07:51:16;102152.06;;;5.88;60.36
31044;BME280;17710;52.520;13.352;2023-01-29T07:53:46;102146.88;;;5.96;59.99
31044;BME280;17710;52.520;13.352;2023-01-29T07:56:15;102148.50;;;5.83;60.82
31044;BME280;17710;52.520;13.352;2023-01-29T07:58:51;102145.94;;;5.91;60.66
31044;BME280;17710;52.520;13.352;2023-01-29T08:01:17;102150.44;;;6.12;60.23
31044;BME280;17710;52.520;13.352;2023-01-29T08:03:44;102165.34;;;6.16;59.94
31044;BME280;17710;52.520;13.352;2023-01-29T08:06:10;102155.59;;;5.90;61.33
31044;BME280;17710;52.520;13.352;2023-01-29T08:08:37;102146.03;;;6.02;61.00
31044;BME280;17710;52.520;13.352;2023-01-29T08:11:05;102139.88;;;5.96;61.17
31044;BME280;17710;52.520;13.352;2023-01-29T08:13:31;102143.22;;;5.80;61.60
31044;BME280;17710;52.520;13.352;2023-01-29T08:15:58;102138.13;;;5.98;61.55
31044;BME280;17710;52.520;13.352;2023-01-29T08:18:26;102138.09;;;5.94;61.38
31044;BME280;17710;52.520;13.352;2023-01-29T08:20:52;102139.75;;;5.84;61.88
31044;BME280;17710;52.520;13.352;2023-01-29T08:23:19;102140.66;;;5.83;62.33
31044;BME280;17710;52.520;13.352;2023-01-29T08:25:45;102142.50;;;5.96;61.52
31044;BME280;17710;52.520;13.352;2023-01-29T08:28:13;102142.47;;;5.90;61.75
31044;BME280;17710;52.520;13.352;2023-01-29T08:30:39;102144.13;;;5.82;61.94
31044;BME280;17710;52.520;13.352;2023-01-29T08:33:08;102145.13;;;5.98;61.96
31044;BME280;17710;52.520;13.352;2023-01-29T08:35:35;102132.00;;;5.95;61.86
31044;BME280;17710;52.520;13.352;2023-01-29T08:38:05;102136.28;;;5.84;62.19
31044;BME280;17710;52.520;13.352;2023-01-29T08:40:33;102145.13;;;5.95;62.03
31044;BME280;17710;52.520;13.352;2023-01-29T08:43:01;102139.06;;;6.04;62.29
31044;BME280;17710;52.520;13.352;2023-01-29T08:45:29;102139.91;;;6.01;61.68
31044;BME280;17710;52.520;13.352;2023-01-29T08:47:55;102137.28;;;6.06;61.85
31044;BME280;17710;52.520;13.352;2023-01-29T08:50:23;102136.44;;;6.04;61.72
31044;BME280;17710;52.520;13.352;2023-01-29T08:52:50;102149.59;;;6.14;61.68
31044;BME280;17710;52.520;13.352;2023-01-29T08:55:16;102143.47;;;6.14;61.66
31044;BME280;17710;52.520;13.352;2023-01-29T08:57:43;102138.09;;;5.94;62.02
31044;BME280;17710;52.520;13.352;2023-01-29T09:00:10;102139.94;;;6.12;61.73
31044;BME280;17710;52.520;13.352;2023-01-29T09:02:38;102129.47;;;6.18;61.76
31044;BME280;17710;52.520;13.352;2023-01-29T09:05:06;102131.25;;;6.22;61.37
31044;BME280;17710;52.520;13.352;2023-01-29T09:07:33;102133.81;;;6.10;62.05
31044;BME280;17710;52.520;13.352;2023-01-29T09:09:59;102123.38;;;6.22;61.47
31044;BME280;17710;52.520;13.352;2023-01-29T09:12:26;102126.03;;;6.29;61.38
31044;BME280;17710;52.520;13.352;2023-01-29T09:14:52;102129.50;;;6.22;60.89
31044;BME280;17710;52.520;13.352;2023-01-29T09:17:19;102131.16;;;6.05;61.27
31044;BME280;17710;52.520;13.352;2023-01-29T09:19:46;102134.66;;;6.06;61.38
31044;BME280;17710;52.520;13.352;2023-01-29T09:22:13;102126.84;;;6.10;61.10
31044;BME280;17710;52.520;13.352;2023-01-29T09:24:39;102124.13;;;5.98;61.73
31044;BME280;17710;52.520;13.352;2023-01-29T09:27:06;102123.25;;;5.94;61.94
31044;BME280;17710;52.520;13.352;2023-01-29T09:29:34;102128.66;;;6.28;60.77
31044;BME280;17710;52.520;13.352;2023-01-29T09:32:00;102122.53;;;6.27;60.31
31044;BME280;17710;52.520;13.352;2023-01-29T09:34:26;102117.03;;;5.85;62.04
31044;BME280;17710;52.520;13.352;2023-01-29T09:36:54;102110.19;;;6.07;61.31
31044;BME280;17710;52.520;13.352;2023-01-29T09:39:21;102114.56;;;6.11;61.38
31044;BME280;17710;52.520;13.352;2023-01-29T09:41:52;102113.78;;;6.28;60.93
31044;BME280;17710;52.520;13.352;2023-01-29T09:44:30;102109.38;;;6.24;60.23
31044;BME280;17710;52.520;13.352;2023-01-29T09:47:00;102111.22;;;6.42;60.25
31044;BME280;17710;52.520;13.352;2023-01-29T09:49:33;102096.38;;;6.71;59.23
31044;BME280;17710;52.520;13.352;2023-01-29T09:52:06;102097.28;;;6.79;58.89
31044;BME280;17710;52.520;13.352;2023-01-29T09:54:46;102091.13;;;6.84;58.58
31044;BME280;17710;52.520;13.352;2023-01-29T09:57:19;102087.66;;;6.89;58.46
31044;BME280;17710;52.520;13.352;2023-01-29T09:59:47;102082.38;;;6.91;58.53
31044;BME280;17710;52.520;13.352;2023-01-29T10:02:21;102078.00;;;6.71;58.96
31044;BME280;17710;52.520;13.352;2023-01-29T10:05:15;102075.38;;;7.23;57.76
31044;BME280;17710;52.520;13.352;2023-01-29T10:08:03;102067.53;;;7.22;57.43
31044;BME280;17710;52.520;13.352;2023-01-29T10:10:48;102063.13;;;7.04;57.69
31044;BME280;17710;52.520;13.352;2023-01-29T10:13:26;102059.63;;;6.88;57.83
31044;BME280;17710;52.520;13.352;2023-01-29T10:16:17;102055.25;;;6.75;58.73
31044;BME280;17710;52.520;13.352;2023-01-29T10:18:55;102052.63;;;6.75;58.53
31044;BME280;17710;52.520;13.352;2023-01-29T10:21:36;102051.75;;;7.05;58.00
31044;BME280;17710;52.520;13.352;2023-01-29T10:24:16;102053.47;;;7.39;56.84
31044;BME280;17710;52.520;13.352;2023-01-29T10:26:49;102071.03;;;7.13;57.42
31044;BME280;17710;52.520;13.352;2023-01-29T10:29:18;102069.28;;;7.07;57.62
31044;BME280;17710;52.520;13.352;2023-01-29T10:31:48;102072.75;;;6.77;58.63
31044;BME280;17710;52.520;13.352;2023-01-29T10:34:23;102067.53;;;7.14;57.56
31044;BME280;17710;52.520;13.352;2023-01-29T10:36:53;102069.22;;;7.48;56.63
31044;BME280;17710;52.520;13.352;2023-01-29T10:39:23;102062.19;;;7.59;55.60
31044;BME280;17710;52.520;13.352;2023-01-29T10:42:05;102060.44;;;7.42;56.04
31044;BME280;17710;52.520;13.352;2023-01-29T10:44:48;102044.72;;;7.20;56.17
31044;BME280;17710;52.520;13.352;2023-01-29T10:47:48;102038.47;;;7.69;55.66
31044;BME280;17710;52.520;13.352;2023-01-29T10:50:30;102033.19;;;7.76;54.85
31044;BME280;17710;52.520;13.352;2023-01-29T10:56:09;102032.47;;;7.00;56.23
31044;BME280;17710;52.520;13.352;2023-01-29T10:58:44;102029.75;;;7.48;55.83
31044;BME280;17710;52.520;13.352;2023-01-29T11:01:13;102014.88;;;7.47;55.61
31044;BME280;17710;52.520;13.352;2023-01-29T11:03:40;102008.69;;;7.64;55.51
31044;BME280;17710;52.520;13.352;2023-01-29T11:06:11;102001.53;;;7.94;54.39
31044;BME280;17710;52.520;13.352;2023-01-29T11:08:42;102005.75;;;8.23;53.24
31044;BME280;17710;52.520;13.352;2023-01-29T11:11:13;102001.41;;;8.19;52.95
31044;BME280;17710;52.520;13.352;2023-01-29T11:13:48;101996.16;;;8.14;53.20
31044;BME280;17710;52.520;13.352;2023-01-29T11:16:22;101991.94;;;7.81;53.64
31044;BME280;17710;52.520;13.352;2023-01-29T11:18:52;101992.75;;;7.98;53.38
31044;BME280;17710;52.520;13.352;2023-01-29T11:21:19;101983.94;;;8.01;53.03
31044;BME280;17710;52.520;13.352;2023-01-29T11:23:49;101975.09;;;8.20;52.73
31044;BME280;17710;52.520;13.352;2023-01-29T11:26:19;101980.34;;;8.17;52.55
31044;BME280;17710;52.520;13.352;2023-01-29T11:28:49;101980.31;;;8.23;52.89
31044;BME280;17710;52.520;13.352;2023-01-29T11:31:24;101978.50;;;8.28;52.24
31044;BME280;17710;52.520;13.352;2023-01-29T11:33:53;101970.66;;;8.31;52.46
31044;BME280;17710;52.520;13.352;2023-01-29T11:36:31;101967.47;;;8.97;51.26
31044;BME280;17710;52.520;13.352;2023-01-29T11:39:11;101955.84;;;9.14;50.32
31044;BME280;17710;52.520;13.352;2023-01-29T11:41:47;101948.97;;;9.00;50.16
31044;BME280;17710;52.520;13.352;2023-01-29T11:44:21;101951.59;;;9.03;50.11
31044;BME280;17710;52.520;13.352;2023-01-29T11:46:51;101945.97;;;8.45;51.37
31044;BME280;17710;52.520;13.352;2023-01-29T11:49:22;101946.91;;;8.30;52.02
31044;BME280;17710;52.520;13.352;2023-01-29T11:51:55;101950.59;;;8.06;52.30
31044;BME280;17710;52.520;13.352;2023-01-29T11:54:27;101942.50;;;8.39;52.10
31044;BME280;17710;52.520;13.352;2023-01-29T11:56:57;101951.34;;;8.26;51.93
31044;BME280;17710;52.520;13.352;2023-01-29T11:59:39;101934.81;;;8.01;51.99
31044;BME280;17710;52.520;13.352;2023-01-29T12:02:24;101928.63;;;8.10;52.49
31044;BME280;17710;52.520;13.352;2023-01-29T12:05:02;101934.72;;;8.15;52.44
31044;BME280;17710;52.520;13.352;2023-01-29T12:07:29;101923.09;;;8.50;51.93
31044;BME280;17710;52.520;13.352;2023-01-29T12:09:58;101922.72;;;8.92;50.46
31044;BME280;17710;52.520;13.352;2023-01-29T12:12:32;101910.44;;;8.88;50.34
31044;BME280;17710;52.520;13.352;2023-01-29T12:15:18;101906.84;;;8.94;50.18
31044;BME280;17710;52.520;13.352;2023-01-29T12:17:52;101904.34;;;8.83;50.10
31044;BME280;17710;52.520;13.352;2023-01-29T12:20:24;101903.63;;;8.66;50.42
31044;BME280;17710;52.520;13.352;2023-01-29T12:22:58;101905.22;;;8.85;50.39
31044;BME280;17710;52.520;13.352;2023-01-29T12:25:36;101905.09;;;8.94;50.01
31044;BME280;17710;52.520;13.352;2023-01-29T12:28:07;101904.19;;;8.97;50.37
31044;BME280;17710;52.520;13.352;2023-01-29T12:30:41;101895.09;;;9.25;49.42
31044;BME280;17710;52.520;13.352;2023-01-29T12:33:15;101892.69;;;9.05;49.59
31044;BME280;17710;52.520;13.352;2023-01-29T12:35:53;101890.22;;;8.87;50.21
31044;BME280;17710;52.520;13.352;2023-01-29T12:38:22;101882.25;;;8.93;50.34
31044;BME280;17710;52.520;13.352;2023-01-29T12:40:52;101870.75;;;8.04;51.55
31044;BME280;17710;52.520;13.352;2023-01-29T12:43:25;101876.97;;;7.94;52.54
31044;BME280;17710;52.520;13.352;2023-01-29T12:45:56;101869.75;;;8.19;52.43
31044;BME280;17710;52.520;13.352;2023-01-29T12:48:27;101878.84;;;7.72;53.13
31044;BME280;17710;52.520;13.352;2023-01-29T12:51:00;101876.19;;;7.78;53.33
31044;BME280;17710;52.520;13.352;2023-01-29T12:53:32;101874.31;;;7.97;52.65
31044;BME280;17710;52.520;13.352;2023-01-29T12:56:04;101874.41;;;7.82;53.12
31044;BME280;17710;52.520;13.352;2023-01-29T12:58:38;101868.16;;;7.98;52.64
31044;BME280;17710;52.520;13.352;2023-01-29T13:01:11;101868.81;;;8.30;51.93
31044;BME280;17710;52.520;13.352;2023-01-29T13:03:45;101867.13;;;8.19;52.12
31044;BME280;17710;52.520;13.352;2023-01-29T13:06:17;101863.63;;;8.18;51.87
31044;BME280;17710;52.520;13.352;2023-01-29T13:08:48;101860.06;;;8.25;51.93
31044;BME280;17710;52.520;13.352;2023-01-29T13:11:21;101866.25;;;8.15;51.91
31044;BME280;17710;52.520;13.352;2023-01-29T13:13:54;101862.03;;;7.96;52.71
31044;BME280;17710;52.520;13.352;2023-01-29T13:16:24;101864.69;;;7.88;52.84